Time;durP1;ratioP1;P1;durP2;ratioP2;P2;SDS_P1;SDS_P2;PMS_P1;PMS_P2;Temp;Humidity;BMP_temperature;BMP_pressure;BME280_temperature;BME280_humidity;BME280_pressure;Samples;Min_cycle;Max_cycle;Signal;HPM_P1;HPM_P2
2023/08/13 00:00:59;;;;;;;4.20;3.85;;;;;;;;;;5031375;28;20251;-63
2023/08/13 00:03:26;;;;;;;3.13;2.88;;;;;;;;;;5032551;28;20258;-63
2023/08/13 00:05:52;;;;;;;3.40;3.20;;;;;;;;;;5030981;28;20207;-63
2023/08/13 00:08:18;;;;;;;3.08;2.90;;;;;;;;;;5031499;28;20682;-63
2023/08/13 00:10:45;;;;;;;4.25;3.95;;;;;;;;;;5031020;28;20205;-62
2023/08/13 00:13:13;;;;;;;6.28;4.03;;;;;;;;;;5031335;28;20700;-63
2023/08/13 00:15:40;;;;;;;3.95;3.63;;;;;;;;;;5030928;28;20199;-60
2023/08/13 00:18:06;;;;;;;3.72;3.45;;;;;;;;;;5030931;28;20204;-63
2023/08/13 00:20:33;;;;;;;3.28;3.05;;;;;;;;;;5030966;28;20231;-64
2023/08/13 00:22:59;;;;;;;4.97;3.70;;;;;;;;;;5031178;28;20223;-63
2023/08/13 00:25:25;;;;;;;7.38;3.83;;;;;;;;;;5030729;28;20630;-63
2023/08/13 00:27:52;;;;;;;3.75;3.45;;;;;;;;;;5031845;28;20204;-63
2023/08/13 00:30:20;;;;;;;3.65;3.45;;;;;;;;;;5029465;28;20236;-63
2023/08/13 00:32:46;;;;;;;3.55;3.30;;;;;;;;;;5030423;28;20759;-63
2023/08/13 00:35:13;;;;;;;3.22;2.92;;;;;;;;;;5030262;28;20634;-63
2023/08/13 00:37:39;;;;;;;3.67;3.28;;;;;;;;;;5030574;28;20239;-63
2023/08/13 00:40:06;;;;;;;3.60;3.40;;;;;;;;;;5031417;28;20291;-61
2023/08/13 00:42:33;;;;;;;3.85;3.63;;;;;;;;;;5030853;28;20235;-61
2023/08/13 00:45:00;;;;;;;3.28;3.08;;;;;;;;;;5030964;28;20199;-61
2023/08/13 00:47:27;;;;;;;4.80;3.60;;;;;;;;;;5030461;28;20215;-60
2023/08/13 00:49:54;;;;;;;3.20;2.92;;;;;;;;;;5030597;28;20227;-62
2023/08/13 00:52:20;;;;;;;3.53;3.22;;;;;;;;;;5031002;28;20293;-62
2023/08/13 00:54:47;;;;;;;3.47;3.28;;;;;;;;;;5030449;28;20273;-64
2023/08/13 00:57:14;;;;;;;3.55;3.35;;;;;;;;;;5030832;28;20253;-62
2023/08/13 00:59:41;;;;;;;3.65;3.45;;;;;;;;;;5030050;28;20235;-63
2023/08/13 01:02:07;;;;;;;3.20;3.05;;;;;;;;;;5028160;28;20281;-63
2023/08/13 01:04:35;;;;;;;2.95;2.85;;;;;;;;;;5029935;28;20308;-62
2023/08/13 01:07:04;;;;;;;3.10;2.90;;;;;;;;;;5030511;28;20270;-63
2023/08/13 01:09:34;;;;;;;2.65;2.45;;;;;;;;;;5030491;28;20204;-63
2023/08/13 01:12:06;;;;;;;3.88;3.58;;;;;;;;;;5030227;28;20207;-64
2023/08/13 01:14:36;;;;;;;3.60;3.40;;;;;;;;;;5029985;28;20204;-61
2023/08/13 01:17:03;;;;;;;3.78;3.47;;;;;;;;;;5042180;28;20567;-61
2023/08/13 01:19:29;;;;;;;3.35;3.03;;;;;;;;;;5030110;28;20630;-61
2023/08/13 01:21:57;;;;;;;2.97;2.78;;;;;;;;;;5029420;28;20236;-63
2023/08/13 01:24:25;;;;;;;3.38;3.17;;;;;;;;;;5030050;28;20709;-60
2023/08/13 01:27:07;;;;;;;4.28;3.03;;;;;;;;;;5030062;28;20204;-61
2023/08/13 01:29:36;;;;;;;4.05;3.35;;;;;;;;;;5030433;28;20211;-61
2023/08/13 01:32:03;;;;;;;6.82;3.55;;;;;;;;;;5029649;28;20230;-61
2023/08/13 01:34:30;;;;;;;3.83;3.33;;;;;;;;;;5029523;28;20725;-61
2023/08/13 01:36:57;;;;;;;4.07;3.20;;;;;;;;;;5029577;28;20203;-61
2023/08/13 01:39:25;;;;;;;3.83;3.63;;;;;;;;;;5029582;28;20254;-62
2023/08/13 01:41:52;;;;;;;4.95;3.13;;;;;;;;;;5029774;28;20228;-62
2023/08/13 01:44:19;;;;;;;4.32;3.45;;;;;;;;;;5029774;28;20207;-62
2023/08/13 01:46:45;;;;;;;3.85;3.65;;;;;;;;;;5033639;28;20682;-62
2023/08/13 01:49:12;;;;;;;3.42;3.13;;;;;;;;;;5033863;28;20261;-62
2023/08/13 01:51:38;;;;;;;3.75;3.42;;;;;;;;;;5033270;28;20640;-62
2023/08/13 01:54:05;;;;;;;5.82;3.33;;;;;;;;;;5033794;28;20210;-62
2023/08/13 01:56:33;;;;;;;3.70;3.50;;;;;;;;;;5033236;28;20281;-62
2023/08/13 01:58:59;;;;;;;4.68;3.67;;;;;;;;;;5033932;28;20253;-62
2023/08/13 02:01:26;;;;;;;3.67;3.45;;;;;;;;;;5033132;28;20678;-62
2023/08/13 02:03:52;;;;;;;3.83;3.53;;;;;;;;;;5033250;28;20235;-63
2023/08/13 02:06:19;;;;;;;3.50;3.30;;;;;;;;;;5033390;28;20257;-62
2023/08/13 02:08:45;;;;;;;3.70;3.50;;;;;;;;;;5033687;28;20903;-63
2023/08/13 02:11:11;;;;;;;5.78;3.03;;;;;;;;;;5033025;28;20588;-62
2023/08/13 02:13:39;;;;;;;3.50;3.20;;;;;;;;;;5033634;28;20196;-62
2023/08/13 02:16:06;;;;;;;3.70;3.50;;;;;;;;;;5032765;28;20204;-62
2023/08/13 02:18:32;;;;;;;3.40;3.10;;;;;;;;;;5033597;28;20304;-62
2023/08/13 02:20:59;;;;;;;3.78;3.47;;;;;;;;;;5033035;28;20208;-63
2023/08/13 02:23:25;;;;;;;4.28;3.97;;;;;;;;;;5033247;28;20219;-62
2023/08/13 02:25:52;;;;;;;3.80;3.53;;;;;;;;;;5033311;28;20658;-63
2023/08/13 02:28:19;;;;;;;3.92;3.63;;;;;;;;;;5032909;28;20212;-62
2023/08/13 02:30:49;;;;;;;3.58;3.33;;;;;;;;;;5032608;28;20215;-62
2023/08/13 02:33:16;;;;;;;5.95;3.55;;;;;;;;;;5033143;28;20204;-62
2023/08/13 02:35:42;;;;;;;8.68;3.28;;;;;;;;;;5032669;28;21439;-62
2023/08/13 02:38:09;;;;;;;3.97;3.60;;;;;;;;;;5033293;28;20235;-62
2023/08/13 02:40:36;;;;;;;3.75;3.55;;;;;;;;;;5032904;28;20211;-62
2023/08/13 02:43:02;;;;;;;3.63;3.42;;;;;;;;;;5033085;28;20230;-62
2023/08/13 02:45:29;;;;;;;4.18;3.67;;;;;;;;;;5032116;28;20666;-62
2023/08/13 02:47:58;;;;;;;4.80;4.40;;;;;;;;;;5033068;28;20242;-62
2023/08/13 02:50:24;;;;;;;3.97;3.58;;;;;;;;;;5032865;28;20254;-62
2023/08/13 02:52:50;;;;;;;3.85;3.65;;;;;;;;;;5033103;28;20247;-62
2023/08/13 02:55:17;;;;;;;3.78;3.55;;;;;;;;;;5032150;28;20663;-61
2023/08/13 02:57:43;;;;;;;5.13;3.83;;;;;;;;;;5032373;28;20636;-62
2023/08/13 03:00:10;;;;;;;4.05;3.70;;;;;;;;;;5032047;28;20231;-62
2023/08/13 03:02:37;;;;;;;3.30;3.10;;;;;;;;;;5032736;28;20227;-61
2023/08/13 03:05:05;;;;;;;4.03;3.50;;;;;;;;;;5032295;28;20227;-62
2023/08/13 03:07:31;;;;;;;3.90;3.58;;;;;;;;;;5032887;28;20321;-62
2023/08/13 03:09:58;;;;;;;3.65;3.35;;;;;;;;;;5032600;28;20207;-62
2023/08/13 03:12:24;;;;;;;4.22;3.58;;;;;;;;;;5032741;28;20293;-62
2023/08/13 03:14:51;;;;;;;4.32;3.50;;;;;;;;;;5032197;28;20204;-62
2023/08/13 03:17:17;;;;;;;4.30;3.92;;;;;;;;;;5043139;28;20258;-62
2023/08/13 03:19:43;;;;;;;7.63;3.15;;;;;;;;;;5034357;28;20254;-62
2023/08/13 03:22:11;;;;;;;4.13;3.53;;;;;;;;;;5032565;28;20753;-62
2023/08/13 03:24:38;;;;;;;4.00;3.80;;;;;;;;;;5031946;28;20208;-62
2023/08/13 03:27:04;;;;;;;3.38;3.17;;;;;;;;;;5032567;28;20208;-62
2023/08/13 03:29:31;;;;;;;4.05;3.67;;;;;;;;;;5031772;28;20203;-62
2023/08/13 03:31:57;;;;;;;7.68;4.45;;;;;;;;;;5032535;28;20207;-62
2023/08/13 03:34:24;;;;;;;4.38;4.07;;;;;;;;;;5031393;28;20642;-62
2023/08/13 03:36:52;;;;;;;3.67;3.47;;;;;;;;;;5032500;28;20262;-62
2023/08/13 03:39:19;;;;;;;4.90;4.38;;;;;;;;;;5031805;28;20230;-62
2023/08/13 03:41:46;;;;;;;4.72;4.40;;;;;;;;;;5031844;28;20207;-62
2023/08/13 03:44:12;;;;;;;4.30;4.00;;;;;;;;;;5031663;28;20642;-62
2023/08/13 03:46:39;;;;;;;3.83;3.60;;;;;;;;;;5031949;28;20239;-62
2023/08/13 03:49:05;;;;;;;4.82;4.40;;;;;;;;;;5031660;28;20732;-62
2023/08/13 03:51:31;;;;;;;7.00;4.10;;;;;;;;;;5031943;28;20199;-62
2023/08/13 03:53:58;;;;;;;3.92;3.72;;;;;;;;;;5031680;28;20199;-63
2023/08/13 03:56:26;;;;;;;4.00;3.70;;;;;;;;;;5031724;28;20233;-63
2023/08/13 03:58:53;;;;;;;4.43;3.90;;;;;;;;;;5030906;28;20208;-63
2023/08/13 04:01:19;;;;;;;4.22;3.83;;;;;;;;;;5031461;28;20714;-62
2023/08/13 04:03:45;;;;;;;4.65;4.25;;;;;;;;;;5030996;28;20227;-62
2023/08/13 04:06:12;;;;;;;4.60;4.30;;;;;;;;;;5031487;28;20818;-62
2023/08/13 04:08:38;;;;;;;3.78;3.58;;;;;;;;;;5030472;28;20200;-62
2023/08/13 04:11:05;;;;;;;3.95;3.63;;;;;;;;;;5031200;28;20289;-62
2023/08/13 04:13:33;;;;;;;10.75;3.90;;;;;;;;;;5030763;28;20662;-62
2023/08/13 04:15:59;;;;;;;4.25;3.63;;;;;;;;;;5030728;28;20208;-62
2023/08/13 04:18:26;;;;;;;3.78;3.50;;;;;;;;;;5030961;28;20738;-63
2023/08/13 04:20:52;;;;;;;4.43;4.03;;;;;;;;;;5031004;28;20659;-63
2023/08/13 04:23:19;;;;;;;3.83;3.63;;;;;;;;;;5031034;28;20783;-62
2023/08/13 04:25:45;;;;;;;4.00;3.70;;;;;;;;;;5030653;28;20203;-63
2023/08/13 04:28:12;;;;;;;7.68;3.38;;;;;;;;;;5019100;28;20257;-62
2023/08/13 04:30:40;;;;;;;4.10;3.80;;;;;;;;;;5030945;28;20258;-62
2023/08/13 04:33:06;;;;;;;4.22;3.92;;;;;;;;;;5031436;28;20204;-63
2023/08/13 04:35:33;;;;;;;4.60;3.60;;;;;;;;;;5030698;28;20226;-63
2023/08/13 04:37:59;;;;;;;4.45;4.15;;;;;;;;;;5031198;28;20199;-63
2023/08/13 04:40:26;;;;;;;5.38;3.60;;;;;;;;;;5030379;28;20257;-63
2023/08/13 04:42:52;;;;;;;3.92;3.72;;;;;;;;;;5031212;28;20223;-62
2023/08/13 04:45:19;;;;;;;4.15;3.95;;;;;;;;;;5030713;28;20301;-62
2023/08/13 04:47:47;;;;;;;5.68;4.65;;;;;;;;;;5030990;28;20219;-63
2023/08/13 04:50:13;;;;;;;3.63;3.33;;;;;;;;;;5030642;28;20301;-63
2023/08/13 04:52:40;;;;;;;4.45;4.05;;;;;;;;;;5030761;28;20302;-63
2023/08/13 04:55:06;;;;;;;3.95;3.45;;;;;;;;;;5029104;28;20239;-63
2023/08/13 04:57:33;;;;;;;4.80;3.53;;;;;;;;;;5030812;28;20943;-63
2023/08/13 05:00:00;;;;;;;3.80;3.60;;;;;;;;;;5030060;28;20609;-62
2023/08/13 05:02:26;;;;;;;3.72;3.30;;;;;;;;;;5030674;28;20338;-63
2023/08/13 05:04:54;;;;;;;3.75;3.45;;;;;;;;;;5032310;28;20243;-61
2023/08/13 05:07:21;;;;;;;3.53;3.30;;;;;;;;;;5039200;28;20286;-63
2023/08/13 05:09:48;;;;;;;4.38;3.97;;;;;;;;;;5029999;28;20220;-62
2023/08/13 05:12:14;;;;;;;4.88;3.58;;;;;;;;;;5030562;28;20258;-62
2023/08/13 05:14:40;;;;;;;4.80;3.90;;;;;;;;;;5029716;28;21074;-63
2023/08/13 05:17:17;;;;;;;6.00;3.92;;;;;;;;;;5030509;28;20211;-64
2023/08/13 05:19:43;;;;;;;4.45;4.15;;;;;;;;;;5030482;28;20207;-62
2023/08/13 05:22:11;;;;;;;4.72;4.05;;;;;;;;;;5030242;28;20235;-63
2023/08/13 05:24:37;;;;;;;6.10;5.60;;;;;;;;;;5029970;28;20251;-63
2023/08/13 05:27:04;;;;;;;7.07;5.30;;;;;;;;;;5030422;28;20686;-62
2023/08/13 05:29:30;;;;;;;6.32;5.43;;;;;;;;;;5031396;28;20259;-62
2023/08/13 05:31:57;;;;;;;5.60;4.95;;;;;;;;;;5030468;28;20199;-62
2023/08/13 05:34:23;;;;;;;4.43;4.22;;;;;;;;;;5029805;28;20682;-63
2023/08/13 05:36:50;;;;;;;4.40;4.00;;;;;;;;;;5030206;28;20210;-62
2023/08/13 05:39:18;;;;;;;4.60;4.15;;;;;;;;;;5030165;28;20235;-62
2023/08/13 05:41:44;;;;;;;3.70;3.50;;;;;;;;;;5030275;28;20215;-62
2023/08/13 05:44:11;;;;;;;4.10;3.70;;;;;;;;;;5029904;28;20248;-63
2023/08/13 05:46:37;;;;;;;4.82;3.38;;;;;;;;;;5029909;28;20239;-63
2023/08/13 05:49:04;;;;;;;3.47;3.28;;;;;;;;;;5030052;28;20203;-63
2023/08/13 05:51:30;;;;;;;3.65;3.35;;;;;;;;;;5030190;28;20203;-65
2023/08/13 05:53:57;;;;;;;3.90;3.58;;;;;;;;;;5030035;28;20199;-63
2023/08/13 05:56:25;;;;;;;3.90;3.60;;;;;;;;;;5030202;28;20207;-62
2023/08/13 05:58:51;;;;;;;4.70;3.38;;;;;;;;;;5030032;28;20261;-63
2023/08/13 06:01:17;;;;;;;3.25;3.05;;;;;;;;;;5029850;28;20215;-62
2023/08/13 06:03:44;;;;;;;4.82;4.40;;;;;;;;;;5029398;28;20227;-62
2023/08/13 06:06:10;;;;;;;4.15;3.03;;;;;;;;;;5029839;28;20242;-62
2023/08/13 06:08:37;;;;;;;5.68;4.03;;;;;;;;;;5029504;28;20215;-63
2023/08/13 06:11:04;;;;;;;8.07;3.50;;;;;;;;;;5029743;28;20685;-62
2023/08/13 06:13:38;;;;;;;3.65;3.35;;;;;;;;;;5029287;28;20288;-63
2023/08/13 06:16:05;;;;;;;3.28;3.08;;;;;;;;;;5029310;28;20689;-64
2023/08/13 06:18:31;;;;;;;3.33;3.03;;;;;;;;;;5029907;28;20231;-64
2023/08/13 06:20:57;;;;;;;3.60;3.40;;;;;;;;;;5029716;28;20200;-64
2023/08/13 06:23:24;;;;;;;8.32;2.97;;;;;;;;;;5029483;28;20227;-63
2023/08/13 06:25:51;;;;;;;3.20;3.00;;;;;;;;;;5029527;28;20647;-63
2023/08/13 06:28:17;;;;;;;3.45;3.22;;;;;;;44.04;nan;95593.66;5029813;28;20208;-64
2023/08/13 06:30:45;;;;;;;3.22;3.03;;;;;;;;;;5030033;28;20301;-63
2023/08/13 06:33:12;;;;;;;3.10;2.90;;;;;;;;;;5033124;28;20590;-64
2023/08/13 06:35:39;;;;;;;3.63;3.42;;;;;;;45.20;nan;95596.88;5033244;28;20309;-64
2023/08/13 06:38:06;;;;;;;5.82;3.10;;;;;;;45.98;nan;95592.63;5033381;28;20783;-64
2023/08/13 06:40:33;;;;;;;3.72;3.45;;;;;;;;;;5032506;28;20697;-65
2023/08/13 06:43:00;;;;;;;3.40;3.20;;;;;;;45.60;nan;95585.66;5033235;28;20266;-64
2023/08/13 06:45:27;;;;;;;3.45;3.25;;;;;;;;;;5032716;28;20207;-64
2023/08/13 06:47:57;;;;;;;3.53;3.33;;;;;;;46.52;nan;95596.94;5033099;28;20257;-64
2023/08/13 06:50:23;;;;;;;3.42;3.22;;;;;;;46.86;nan;95597.28;5032769;28;20195;-65
2023/08/13 06:52:50;;;;;;;3.88;3.53;;;;;;;47.00;nan;95582.25;5032957;28;20380;-65
2023/08/13 06:55:17;;;;;;;3.72;3.53;;;;;;;47.23;nan;95576.38;5032482;28;20203;-65
2023/08/13 06:57:46;;;;;;;4.05;3.65;;;;;;;;;;5032696;28;20292;-65
2023/08/13 07:00:14;;;;;;;4.38;3.50;;;;;;;47.97;nan;95580.34;5032796;28;20231;-65
2023/08/13 07:02:41;;;;;;;4.72;3.80;;;;;;;;;;5032491;28;20290;-65
2023/08/13 07:05:11;;;;;;;3.42;3.22;;;;;;;;;;5031916;28;20231;-65
2023/08/13 07:07:38;;;;;;;4.72;3.30;;;;;;;;;;5032917;28;20213;-64
2023/08/13 07:10:05;;;;;;;4.10;3.72;;;;;;;;;;5032352;28;20250;-65
2023/08/13 07:12:32;;;;;;;3.60;3.40;;;;;;;;;;5032402;28;20748;-65
2023/08/13 07:14:58;;;;;;;4.55;3.38;;;;;;;;;;5031870;28;20195;-64
2023/08/13 07:17:25;;;;;;;5.32;3.40;;;;;;;;;;5032521;28;20246;-65
2023/08/13 07:19:52;;;;;;;3.65;3.33;;;;;;;;;;5032030;28;20674;-65
2023/08/13 07:22:21;;;;;;;3.22;3.03;;;;;;;;;;5032387;28;20305;-65
2023/08/13 07:24:48;;;;;;;3.88;3.53;;;;;;;;;;5031628;28;20228;-65
2023/08/13 07:27:14;;;;;;;3.35;3.08;;;;;;;;;;5032588;28;20206;-66
2023/08/13 07:29:41;;;;;;;4.38;3.33;;;;;;;;;;5032098;28;20204;-65
2023/08/13 07:32:07;;;;;;;4.40;4.20;;;;;;;;;;5032505;28;20207;-66
2023/08/13 07:34:33;;;;;;;6.00;3.95;;;;;;;;;;5031546;28;20246;-66
2023/08/13 07:37:00;;;;;;;3.50;3.28;;;;;;;;;;5032400;28;20257;-66
2023/08/13 07:39:28;;;;;;;4.50;4.15;;;;;;;;;;5032186;28;20275;-65
2023/08/13 07:41:54;;;;;;;4.47;4.18;;;;;;;;;;5031413;28;20206;-65
2023/08/13 07:44:21;;;;;;;3.85;3.65;;;;;;;;;;5031417;28;20246;-65
2023/08/13 07:46:50;;;;;;;4.47;2.90;;;;;;;;;;5031450;28;20203;-66
2023/08/13 07:49:17;;;;;;;4.28;3.97;;;;;;;;;;5020576;28;20207;-66
2023/08/13 07:51:43;;;;;;;6.97;3.92;;;;;;;;;;5031303;28;20206;-66
2023/08/13 07:54:09;;;;;;;7.43;3.95;;;;;;;;;;5031789;28;20696;-66
2023/08/13 07:56:37;;;;;;;4.57;3.63;;;;;;;;;;5031806;28;20231;-65
2023/08/13 07:59:04;;;;;;;3.70;3.53;;;;;;;;;;5032270;28;20242;-65
2023/08/13 08:01:31;;;;;;;6.63;4.20;;;;;;;;;;5030958;28;20637;-65
2023/08/13 08:03:57;;;;;;;3.45;3.25;;;;;;;;;;5031447;28;20267;-65
2023/08/13 08:06:24;;;;;;;5.32;5.03;;;;;;;;;;5031436;28;20211;-65
2023/08/13 08:08:50;;;;;;;3.42;3.13;;;;;;;;;;5031846;28;20235;-64
2023/08/13 08:11:17;;;;;;;3.38;3.10;;;;;;;;;;5030541;28;20694;-65
2023/08/13 08:13:45;;;;;;;5.43;3.38;;;;;;;;;;5031804;28;21042;-65
2023/08/13 08:16:11;;;;;;;3.60;3.40;;;;;;;;;;5030801;28;20211;-66
2023/08/13 08:18:37;;;;;;;4.38;3.75;;;;;;;;;;5031457;28;20257;-65
2023/08/13 08:21:04;;;;;;;4.20;2.80;;;;;;;;;;5030873;28;20235;-64
2023/08/13 08:23:32;;;;;;;3.25;3.05;;;;;;;;;;5031126;28;20270;-66
2023/08/13 08:25:59;;;;;;;4.05;3.03;;;;;;;;;;5030643;28;20208;-65
2023/08/13 08:28:26;;;;;;;2.95;2.85;;;;;;;;;;5031110;28;20203;-65
2023/08/13 08:30:54;;;;;;;3.38;2.97;;;;;;;;;;5030844;28;20218;-65
2023/08/13 08:33:21;;;;;;;4.65;3.20;;;;;;;;;;5030711;28;20700;-65
2023/08/13 08:35:47;;;;;;;3.22;3.03;;;;;;;;;;5030883;28;20240;-66
2023/08/13 08:38:14;;;;;;;3.20;2.90;;;;;;;;;;5030975;28;20255;-66
2023/08/13 08:40:42;;;;;;;2.97;2.70;;;;;;;;;;5030549;28;20238;-65
2023/08/13 08:43:09;;;;;;;3.35;3.15;;;;;;;;;;5030948;28;20273;-65
2023/08/13 08:45:37;;;;;;;3.20;2.80;;;;;;;;;;5030291;28;20215;-66
2023/08/13 08:48:05;;;;;;;3.17;2.97;;;;;;;;;;5030604;28;20649;-65
2023/08/13 08:50:31;;;;;;;2.88;2.67;;;;;;;;;;5030579;28;20613;-64
2023/08/13 08:52:58;;;;;;;3.35;3.05;;;;;;;;;;5030906;28;20261;-65
2023/08/13 08:55:25;;;;;;;3.85;2.60;;;;;;;;;;5030415;28;20199;-64
2023/08/13 08:57:51;;;;;;;3.28;3.08;;;;;;;;;;5041919;28;20215;-65
2023/08/13 09:00:17;;;;;;;5.80;3.10;;;;;;;;;;5030930;28;20824;-65
2023/08/13 09:02:44;;;;;;;3.17;2.88;;;;;;;;;;5030247;28;20204;-65
2023/08/13 09:05:12;;;;;;;3.30;2.45;;;;;;;;;;5029777;28;20227;-65
2023/08/13 09:07:40;;;;;;;4.93;2.80;;;;;;;;;;5030631;28;20208;-64
2023/08/13 09:10:07;;;;;;;2.63;2.42;;;;;;;;;;5029778;28;20227;-64
2023/08/13 09:12:36;;;;;;;2.65;2.55;;;;;;;;;;5030302;28;20265;-65
2023/08/13 09:15:04;;;;;;;2.60;2.50;;;;;;;;;;5030139;28;20200;-65
2023/08/13 09:17:30;;;;;;;3.03;2.83;;;;;;;;;;5030528;28;20242;-64
2023/08/13 09:19:57;;;;;;;2.95;2.70;;;;;;;;;;5030370;28;20223;-65
2023/08/13 09:22:25;;;;;;;2.70;2.50;;;;;;;;;;5029962;28;20216;-64
2023/08/13 09:24:53;;;;;;;3.78;2.85;;;;;;;;;;5029552;28;20683;-64
2023/08/13 09:27:20;;;;;;;3.08;2.88;;;;;;;;;;5029675;28;20231;-64
2023/08/13 09:29:52;;;;;;;2.97;2.72;;;;;;;;;;5030202;28;20203;-64
2023/08/13 09:32:19;;;;;;;3.03;2.83;;;;;;;;;;5029815;28;20273;-64
2023/08/13 09:34:45;;;;;;;5.65;3.25;;;;;;;;;;5030556;28;20593;-64
2023/08/13 09:37:12;;;;;;;2.92;2.72;;;;;;;;;;5029969;28;20204;-64
2023/08/13 09:39:40;;;;;;;6.28;2.88;;;;;;;;;;5030314;28;20203;-64
2023/08/13 09:42:07;;;;;;;4.38;3.42;;;;;;;;;;5029682;28;20677;-64
2023/08/13 09:44:34;;;;;;;3.17;2.97;;;;;;;;;;5030373;28;20231;-65
2023/08/13 09:47:01;;;;;;;2.97;2.78;;;;;;;;;;5029896;28;20235;-63
2023/08/13 09:49:29;;;;;;;3.10;2.90;;;;;;;;;;5030508;28;20574;-65
2023/08/13 09:51:57;;;;;;;2.90;2.75;;;;;;;;;;5029646;28;20251;-64
2023/08/13 09:54:28;;;;;;;2.90;2.70;;;;;;;;;;5030279;28;20261;-64
2023/08/13 09:56:57;;;;;;;2.95;2.75;;;;;;;;;;5030251;28;20286;-65
2023/08/13 09:59:24;;;;;;;2.50;2.40;;;;;;;;;;5030021;28;20235;-63
2023/08/13 10:01:51;;;;;;;5.22;3.20;;;;;;;;;;5029298;28;20208;-62
2023/08/13 10:04:18;;;;;;;3.45;3.15;;;;;;;;;;5029957;28;20320;-65
2023/08/13 10:06:46;;;;;;;4.70;2.90;;;;;;;;;;5031967;28;20293;-64
2023/08/13 10:09:13;;;;;;;3.20;2.90;;;;;;;;;;5034510;28;20208;-63
2023/08/13 10:11:39;;;;;;;3.17;2.88;;;;;;;;;;5032669;28;20273;-65
2023/08/13 10:14:07;;;;;;;4.00;2.75;;;;;;;;;;5034272;28;20637;-64
2023/08/13 10:16:34;;;;;;;2.70;2.58;;;;;;;;;;5034138;28;20326;-63
2023/08/13 10:19:01;;;;;;;2.75;2.58;;;;;;;;;;5034156;28;20635;-62
2023/08/13 10:21:36;;;;;;;3.35;2.50;;;;;;;;;;5033423;28;20235;-64
2023/08/13 10:24:03;;;;;;;2.55;2.45;;;;;;;;;;5035812;28;20207;-66
2023/08/13 10:26:30;;;;;;;4.25;2.90;;;;;;;;;;5034747;28;20219;-64
2023/08/13 10:28:56;;;;;;;4.28;2.90;;;;;;;;;;5033103;28;20704;-63
2023/08/13 10:31:31;;;;;;;3.00;2.80;;;;;;;;;;5032964;28;20658;-63
2023/08/13 10:34:07;;;;;;;3.70;3.30;;;;;;;;;;5034082;28;20203;-63
2023/08/13 10:36:43;;;;;;;3.80;3.08;;;;;;;;;;5033854;28;20373;-63
2023/08/13 10:39:29;;;;;;;4.68;2.83;;;;;;;;;;5033603;28;20230;-63
2023/08/13 10:41:55;;;;;;;7.03;3.13;;;;;;;;;;5034842;28;20235;-64
2023/08/13 10:44:31;;;;;;;6.25;3.08;;;;;;;;;;5035050;28;20294;-64
2023/08/13 10:46:59;;;;;;;2.70;2.60;;;;;;;;;;5032910;28;20211;-64
2023/08/13 10:49:26;;;;;;;3.25;3.05;;;;;;;;;;5033029;28;20200;-63
2023/08/13 10:51:53;;;;;;;3.17;3.00;;;;;;;;;;5032555;28;20224;-64
2023/08/13 10:54:19;;;;;;;3.28;2.88;;;;;;;;;;5032937;28;20764;-64
2023/08/13 10:56:53;;;;;;;7.30;3.50;;;;;;;;;;5032196;28;20989;-64
2023/08/13 10:59:20;;;;;;;3.70;3.00;;;;;;;;;;5032981;28;20290;-63
2023/08/13 11:02:01;;;;;;;3.45;2.72;;;;;;;;;;5032189;28;20211;-63
2023/08/13 11:04:29;;;;;;;2.85;2.65;;;;;;;;;;5032160;28;20237;-62
2023/08/13 11:06:55;;;;;;;3.50;3.30;;;;;;;;;;5032172;28;20207;-65
2023/08/13 11:09:23;;;;;;;2.97;2.80;;;;;;;;;;5032737;28;20212;-64
2023/08/13 11:11:49;;;;;;;3.85;3.40;;;;;;;;;;5032059;28;20261;-63
2023/08/13 11:14:16;;;;;;;3.20;3.10;;;;;;;;;;5032534;28;20694;-63
2023/08/13 11:16:42;;;;;;;3.35;3.10;;;;;;;;;;5031851;28;20208;-63
2023/08/13 11:19:09;;;;;;;3.08;2.88;;;;;;;;;;5032486;28;20719;-63
2023/08/13 11:21:37;;;;;;;2.67;2.47;;;;;;;;;;5037868;28;20734;-63
2023/08/13 11:24:05;;;;;;;2.92;2.72;;;;;;;;;;5038136;28;20235;-63
2023/08/13 11:26:34;;;;;;;3.55;3.25;;;;;;;;;;5031763;28;20474;-64
2023/08/13 11:29:00;;;;;;;3.65;3.15;;;;;;;;;;5032312;28;20262;-64
2023/08/13 11:31:27;;;;;;;3.50;3.28;;;;;;;;;;5020413;28;20199;-64
2023/08/13 11:33:53;;;;;;;4.68;3.20;;;;;;;;;;5031761;28;20258;-63
2023/08/13 11:36:20;;;;;;;3.35;3.10;;;;;;;;;;5020149;28;20633;-63
2023/08/13 11:38:48;;;;;;;3.22;2.72;;;;;;;;;;5031644;28;20634;-64
2023/08/13 11:41:14;;;;;;;3.47;3.05;;;;;;;;;;5032277;28;20650;-63
2023/08/13 11:43:41;;;;;;;2.88;2.67;;;;;;;;;;5031826;28;20239;-63
2023/08/13 11:46:08;;;;;;;4.57;3.13;;;;;;;;;;5031960;28;20224;-63
2023/08/13 11:48:37;;;;;;;2.97;2.88;;;;;;;;;;5031602;28;20210;-64
2023/08/13 11:51:11;;;;;;;3.05;2.85;;;;;;;;;;5032197;28;20242;-63
2023/08/13 11:53:41;;;;;;;3.53;3.22;;;;;;;;;;5031798;28;20352;-64
2023/08/13 11:56:08;;;;;;;4.35;3.20;;;;;;;;;;5031919;28;20200;-64
2023/08/13 11:58:35;;;;;;;5.68;2.88;;;;;;;;;;5031540;28;20203;-63
2023/08/13 12:01:01;;;;;;;3.83;3.58;;;;;;;;;;5031466;28;20715;-64
2023/08/13 12:03:34;;;;;;;3.50;3.22;;;;;;;;;;5031134;28;20669;-64
2023/08/13 12:06:01;;;;;;;3.22;3.03;;;;;;;;;;5031763;28;20231;-65
2023/08/13 12:08:28;;;;;;;3.05;2.92;;;;;;;;;;5031208;28;20261;-64
2023/08/13 12:10:55;;;;;;;3.20;3.00;;;;;;;;;;5031167;28;20298;-64
2023/08/13 12:13:22;;;;;;;3.20;2.90;;;;;;;;;;5031148;28;20196;-64
2023/08/13 12:15:49;;;;;;;3.22;2.92;;;;;;;;;;5031389;28;20238;-64
2023/08/13 12:18:15;;;;;;;3.10;2.90;;;;;;;;;;5030894;28;20564;-63
2023/08/13 12:20:42;;;;;;;3.05;2.85;;;;;;;;;;5031766;28;20266;-65
2023/08/13 12:23:08;;;;;;;3.85;2.90;;;;;;;;;;5031138;28;20265;-64
2023/08/13 12:25:35;;;;;;;3.40;3.10;;;;;;;;;;5030937;28;20799;-63
2023/08/13 12:28:01;;;;;;;3.05;2.67;;;;;;;;;;5030991;28;20286;-63
2023/08/13 12:30:29;;;;;;;3.22;2.78;;;;;;;;;;5030702;28;20274;-64
2023/08/13 12:32:56;;;;;;;4.35;2.95;;;;;;;;;;5030584;28;20231;-63
2023/08/13 12:35:22;;;;;;;2.30;2.20;;;;;;;;;;5031315;28;20243;-64
2023/08/13 12:37:49;;;;;;;4.60;2.83;;;;;;;;;;5030456;28;20203;-64
2023/08/13 12:40:15;;;;;;;2.95;2.75;;;;;;;;;;5031022;28;20638;-64
2023/08/13 12:42:42;;;;;;;2.95;2.83;;;;;;;;;;5030953;28;20211;-63
2023/08/13 12:45:08;;;;;;;3.40;3.20;;;;;;;;;;5030553;28;20228;-64
2023/08/13 12:47:37;;;;;;;4.28;2.88;;;;;;;;;;5030660;28;20249;-64
2023/08/13 12:50:03;;;;;;;4.00;2.40;;;;;;;;;;5030730;28;20615;-64
2023/08/13 12:52:30;;;;;;;3.30;3.10;;;;;;;;;;5030361;28;20243;-64
2023/08/13 12:54:56;;;;;;;3.33;3.13;;;;;;;;;;5030052;28;20203;-65
2023/08/13 12:57:23;;;;;;;3.20;2.90;;;;;;;;;;5030435;28;20705;-63
2023/08/13 12:59:50;;;;;;;3.75;3.45;;;;;;;;;;5030585;28;20215;-64
2023/08/13 13:02:16;;;;;;;3.17;2.88;;;;;;;;;;5030417;28;20227;-64
2023/08/13 13:04:44;;;;;;;3.30;3.10;;;;;;;;;;5030057;28;20615;-65
2023/08/13 13:07:10;;;;;;;3.38;3.10;;;;;;;;;;5030649;28;20199;-63
2023/08/13 13:09:37;;;;;;;4.70;3.13;;;;;;;;;;5029960;28;20204;-65
2023/08/13 13:12:04;;;;;;;3.38;3.17;;;;;;;;;;5030432;28;20257;-65
2023/08/13 13:14:30;;;;;;;3.50;3.20;;;;;;;;;;5030139;28;20677;-65
2023/08/13 13:16:57;;;;;;;4.50;3.35;;;;;;;;;;5030449;28;20200;-64
2023/08/13 13:19:23;;;;;;;3.55;3.05;;;;;;;;;;5030063;28;20208;-63
2023/08/13 13:21:51;;;;;;;3.05;2.85;;;;;;;;;;5030777;28;20269;-64
2023/08/13 13:24:18;;;;;;;3.17;2.97;;;;;;;;;;5030173;28;20239;-65
2023/08/13 13:26:44;;;;;;;3.40;3.20;;;;;;;;;;5030407;28;20223;-65
2023/08/13 13:29:10;;;;;;;3.35;3.08;;;;;;;;;;5029756;28;20607;-64
2023/08/13 13:31:37;;;;;;;4.95;3.55;;;;;;;;;;5030681;28;20235;-64
2023/08/13 13:34:03;;;;;;;3.15;2.95;;;;;;;;;;5030280;28;20235;-64
2023/08/13 13:36:30;;;;;;;3.85;3.55;;;;;;;;;;5030184;28;20199;-65
2023/08/13 13:38:58;;;;;;;8.63;3.58;;;;;;;;;;5029980;28;20195;-64
2023/08/13 13:41:24;;;;;;;4.35;3.97;;;;;;;;;;5033332;28;20231;-62
2023/08/13 13:43:50;;;;;;;3.38;3.17;;;;;;;;;;5044598;28;20641;-65
2023/08/13 13:46:17;;;;;;;3.83;3.53;;;;;;;;;;5034435;28;20277;-65
2023/08/13 13:48:44;;;;;;;3.67;3.17;;;;;;;;;;5033885;28;20290;-65
2023/08/13 13:51:10;;;;;;;3.90;3.70;;;;;;;;;;5034552;28;20204;-65
2023/08/13 13:53:36;;;;;;;4.03;3.83;;;;;;;;;;5033747;28;20744;-65
2023/08/13 13:56:04;;;;;;;3.47;3.28;;;;;;;;;;5033949;28;20654;-65
2023/08/13 13:58:31;;;;;;;6.80;3.75;;;;;;;;;;5033845;28;20579;-65
2023/08/13 14:00:57;;;;;;;4.28;3.97;;;;;;;;;;5033882;28;20207;-65
2023/08/13 14:03:24;;;;;;;3.33;3.13;;;;;;;;;;5033855;28;20258;-64
2023/08/13 14:05:51;;;;;;;3.70;3.50;;;;;;;;;;5034115;28;20661;-65
2023/08/13 14:08:17;;;;;;;6.68;3.05;;;;;;;;;;5033372;28;20699;-64
2023/08/13 14:10:44;;;;;;;5.45;3.13;;;;;;;;;;5033801;28;20211;-65
2023/08/13 14:13:12;;;;;;;2.88;2.60;;;;;;;;;;5032992;28;20716;-63
2023/08/13 14:15:38;;;;;;;3.60;3.40;;;;;;;;;;5033877;28;20290;-64
2023/08/13 14:18:05;;;;;;;2.75;2.55;;;;;;;;;;5033577;28;20250;-62
2023/08/13 14:20:32;;;;;;;3.58;3.25;;;;;;;;;;5033090;28;20695;-64
2023/08/13 14:22:58;;;;;;;3.28;3.08;;;;;;;;;;5033615;28;20250;-64
2023/08/13 14:25:24;;;;;;;3.58;3.20;;;;;;;;;;5033326;28;20235;-63
2023/08/13 14:27:51;;;;;;;3.33;3.08;;;;;;;;;;5033162;28;20235;-64
2023/08/13 14:30:19;;;;;;;4.05;3.47;;;;;;;;;;5033377;28;20203;-65
2023/08/13 14:32:45;;;;;;;3.83;3.63;;;;;;;;;;5033274;28;20655;-63
2023/08/13 14:35:12;;;;;;;3.25;3.08;;;;;;;;;;5033478;28;20208;-64
2023/08/13 14:37:38;;;;;;;3.85;3.65;;;;;;;;;;5033066;28;20652;-64